메인 페이지
METAR-TAF:

METAR-TAF

공항 :

Shell Mera, 에콰도르

위도: 01-30-19S, 경도: 078-03-46W, 고도: 1056m

현재 날씨관측

예보는 41분 전, 20:00시(UTC)에 발표되었습니다.
2kt
온도 24°C
습도 83%
기압 1015 hPa
시정 10km 이상
고도 2600ft 상공 구름 보통
고도 10000ft 상공 구름 많음
시계 내 소나기

METAR: SESM 182000Z 09002KT 9999 VCSH SCT026 BKN100 24/21 Q1015 RMK A2999

시각: 15:41 (20:41 UTC)


TAF: 누락

4,000개 이상의 공항 관측 자료 및 예보 (METAR 및 TAF 보고).

지도상에서 검색 가능한 기상관측소가 노란 점과 빨간 점으로 표시되어 있습니다.

기상관측소 명을 보려면 표시 위로 마우스를 이동하세요.

날씨 관측과 예보를 보려면 클릭하세요.

지도 변경 : 확대하려면 엑스 표시가 있는 녹색 버튼, 축소하려면 빼기 표시가 있는 녹색 버튼, 다음 페이지의 지도를 보려면 녹색 화살표를 클릭하세요.


METAR-TAF: